Time;durP1;ratioP1;P1;durP2;ratioP2;P2;SDS_P1;SDS_P2;PMS_P1;PMS_P2;Temp;Humidity;BMP_temperature;BMP_pressure;BME280_temperature;BME280_humidity;BME280_pressure;Samples;Min_cycle;Max_cycle;Signal;HPM_P1;HPM_P2
2020/12/22 00:01:43;;;;;;;22.80;16.73;;;5.90;99.90;;;4.02;100.00;100299.31;4882706;28;100029;-69
2020/12/22 00:04:10;;;;;;;24.23;16.83;;;5.90;99.90;;;4.00;100.00;100287.97;4951028;28;100299;-67
2020/12/22 00:06:37;;;;;;;24.23;18.87;;;5.90;99.90;;;4.03;100.00;100285.09;4885038;28;101581;-68
2020/12/22 00:09:04;;;;;;;23.10;15.63;;;5.90;99.90;;;4.09;100.00;100284.63;4883602;28;100308;-69
2020/12/22 00:11:31;;;;;;;23.47;16.80;;;5.80;99.90;;;4.09;100.00;100283.78;4922513;28;100338;-68
2020/12/22 00:13:58;;;;;;;21.63;16.67;;;5.90;99.90;;;4.12;100.00;100280.91;4915553;28;100223;-68
2020/12/22 00:16:33;;;;;;;21.70;15.27;;;6.00;99.90;;;4.15;100.00;100285.97;4964471;28;100224;-68
2020/12/22 00:18:59;;;;;;;20.07;15.37;;;6.00;99.90;;;4.18;100.00;100277.81;4964160;28;101339;-68
2020/12/22 00:21:31;;;;;;;22.10;16.13;;;5.90;99.90;;;4.20;100.00;100279.34;4964363;28;100111;-68
2020/12/22 00:23:57;;;;;;;22.30;16.97;;;6.10;99.90;;;4.17;100.00;100279.59;4963867;28;99998;-68
2020/12/22 00:26:25;;;;;;;22.37;17.87;;;6.10;99.90;;;4.24;100.00;100269.38;4956586;28;101182;-68
2020/12/22 00:28:52;;;;;;;22.97;16.77;;;6.00;99.90;;;4.25;100.00;100263.13;4964801;28;100647;-68
2020/12/22 00:31:18;;;;;;;23.70;16.80;;;6.00;99.90;;;4.25;100.00;100256.00;4933848;28;100026;-69
2020/12/22 00:33:45;;;;;;;23.00;16.33;;;6.20;99.90;;;4.26;100.00;100249.75;4879599;28;100425;-68
2020/12/22 00:36:12;;;;;;;24.37;16.17;;;6.10;99.90;;;4.25;100.00;100240.13;4863626;28;103834;-68
2020/12/22 00:38:38;;;;;;;21.47;17.50;;;6.20;99.90;;;4.24;100.00;100248.19;4887024;28;100103;-68
2020/12/22 00:41:05;;;;;;;23.87;16.93;;;6.10;99.90;;;4.23;100.00;100234.09;4884850;28;100193;-69
2020/12/22 00:43:33;;;;;;;20.43;15.20;;;6.20;99.90;;;4.24;100.00;100235.78;4882440;28;100265;-68
2020/12/22 00:45:59;;;;;;;21.27;16.43;;;6.20;99.90;;;4.29;100.00;100243.38;4888891;28;101333;-66
2020/12/22 00:48:26;;;;;;;20.83;15.87;;;6.10;99.90;;;4.29;100.00;100238.09;4863946;28;103054;-68
2020/12/22 00:50:52;;;;;;;20.77;15.77;;;6.10;99.90;;;4.30;100.00;100232.66;4863459;28;99887;-67
2020/12/22 00:53:19;;;;;;;21.60;15.67;;;6.30;99.90;;;4.34;100.00;100227.97;4884328;28;100169;-68
2020/12/22 00:55:45;;;;;;;21.27;16.23;;;6.50;99.90;;;4.32;100.00;100233.41;4865013;28;103134;-68
2020/12/22 00:58:12;;;;;;;21.10;16.57;;;6.20;99.90;;;4.40;100.00;100221.34;4864400;28;102596;-68
2020/12/22 01:00:40;;;;;;;21.33;17.20;;;6.20;99.90;;;4.36;100.00;100217.25;4881339;28;100266;-69
2020/12/22 01:03:07;;;;;;;22.43;16.40;;;6.20;99.90;;;4.34;100.00;100217.34;4963568;28;100136;-69
2020/12/22 01:05:34;;;;;;;21.77;15.03;;;6.20;99.90;;;4.33;100.00;100213.88;4963115;28;101356;-69
2020/12/22 01:08:00;;;;;;;20.90;16.80;;;6.30;99.90;;;4.25;100.00;100213.63;4963290;28;100709;-69
2020/12/22 01:10:27;;;;;;;24.33;17.80;;;6.30;99.90;;;4.33;100.00;100202.44;4960785;28;100387;-69
2020/12/22 01:12:54;;;;;;;21.30;16.57;;;6.30;99.90;;;4.31;100.00;100191.13;4963619;28;99922;-68
2020/12/22 01:15:21;;;;;;;21.00;15.20;;;6.20;99.90;;;4.35;100.00;100184.63;4962768;28;100842;-66
2020/12/22 01:17:48;;;;;;;21.97;16.67;;;6.10;99.90;;;4.34;100.00;100185.56;4963514;28;100368;-67
2020/12/22 01:20:15;;;;;;;22.60;18.40;;;7.30;99.90;;;4.25;100.00;100192.44;4963259;28;100335;-68
2020/12/22 01:22:42;;;;;;;23.37;16.73;;;7.20;99.90;;;4.28;100.00;100196.66;4890403;28;99984;-69
2020/12/22 01:25:08;;;;;;;23.53;17.30;;;6.10;99.90;;;4.28;100.00;100183.41;4881975;28;101563;-68
2020/12/22 01:27:35;;;;;;;24.57;17.87;;;6.10;99.90;;;4.26;100.00;100178.25;4882020;28;101361;-68
2020/12/22 01:30:01;;;;;;;19.63;15.97;;;6.20;99.90;;;4.25;100.00;100173.91;4881979;28;100347;-68
2020/12/22 01:32:28;;;;;;;22.77;16.87;;;5.90;99.90;;;4.29;100.00;100172.72;4883136;28;100210;-68
2020/12/22 01:34:55;;;;;;;23.37;17.07;;;6.00;99.90;;;4.38;100.00;100157.88;4883806;28;100730;-68
2020/12/22 01:37:22;;;;;;;22.63;17.03;;;7.10;99.90;;;4.44;100.00;100159.22;4959614;28;100535;-67
2020/12/22 01:39:49;;;;;;;21.47;17.37;;;6.00;99.90;;;4.49;100.00;100159.69;4962727;28;100382;-67
2020/12/22 01:42:15;;;;;;;24.40;17.20;;;5.90;99.90;;;4.45;100.00;100158.25;4963381;28;100242;-69
2020/12/22 01:44:42;;;;;;;23.00;17.10;;;6.10;99.90;;;4.49;100.00;100165.81;4930381;28;101370;-68
2020/12/22 01:47:09;;;;;;;22.60;16.83;;;6.00;99.90;;;4.49;100.00;100149.91;4884742;28;101041;-69
2020/12/22 01:49:36;;;;;;;22.00;15.50;;;6.00;99.90;;;4.51;100.00;100144.50;4923382;28;99876;-68
2020/12/22 01:52:04;;;;;;;23.50;18.27;;;6.10;99.90;;;4.51;100.00;100136.56;4966672;28;100288;-69
2020/12/22 01:54:31;;;;;;;22.77;16.97;;;6.20;99.90;;;4.54;100.00;100125.72;4965958;28;101425;-68
2020/12/22 01:56:58;;;;;;;23.73;19.80;;;6.80;99.90;;;4.53;100.00;100131.97;4932022;28;101198;-68
2020/12/22 01:59:25;;;;;;;19.30;15.97;;;6.20;99.90;;;4.55;100.00;100109.69;4884767;28;100182;-66
2020/12/22 02:01:53;;;;;;;20.80;15.30;;;6.10;99.90;;;4.59;100.00;100112.91;4890665;28;100237;-69
2020/12/22 02:04:21;;;;;;;23.23;18.30;;;6.30;99.90;;;4.56;100.00;100127.28;4884278;28;101661;-66
2020/12/22 02:06:48;;;;;;;22.20;16.37;;;6.40;99.90;;;4.58;100.00;100129.78;4884127;28;100672;-69
2020/12/22 02:09:16;;;;;;;21.53;15.97;;;6.30;99.90;;;4.56;100.00;100116.69;4884923;28;100068;-69
2020/12/22 02:11:42;;;;;;;20.77;17.37;;;6.50;99.90;;;4.59;100.00;100119.06;4884766;28;100107;-67
2020/12/22 02:14:11;;;;;;;22.43;16.93;;;6.30;99.90;;;4.58;100.00;100112.06;4953992;28;101700;-70
2020/12/22 02:16:39;;;;;;;24.37;16.83;;;6.40;99.90;;;4.52;100.00;100112.59;4897045;28;101221;-68
2020/12/22 02:19:06;;;;;;;20.83;15.97;;;6.30;99.90;;;4.48;100.00;100113.78;4891630;28;100278;-69
2020/12/22 02:21:34;;;;;;;18.87;16.33;;;6.30;99.90;;;4.43;100.00;100113.34;4887757;28;99961;-69
2020/12/22 02:24:00;;;;;;;23.80;18.00;;;6.10;99.90;;;4.38;100.00;100099.59;4885115;28;100750;-68
2020/12/22 02:26:27;;;;;;;23.30;18.07;;;6.00;99.90;;;4.37;100.00;100102.38;4885146;28;100876;-68
2020/12/22 02:28:55;;;;;;;19.40;16.20;;;6.20;99.90;;;4.31;100.00;100109.88;4889623;28;100229;-66
2020/12/22 02:31:24;;;;;;;20.87;16.43;;;6.30;99.90;;;4.27;100.00;100116.38;4907595;28;100046;-67
2020/12/22 02:33:51;;;;;;;23.63;17.13;;;6.20;99.90;;;4.19;100.00;100108.19;4964864;28;101690;-71
2020/12/22 02:36:18;;;;;;;20.87;15.67;;;7.00;99.90;;;4.16;100.00;100111.09;4910870;28;100521;-68
2020/12/22 02:38:45;;;;;;;23.53;18.17;;;6.10;99.90;;;4.11;100.00;100093.84;4884151;28;100183;-69
2020/12/22 02:41:12;;;;;;;22.00;16.37;;;6.10;99.90;;;4.09;100.00;100093.97;4924954;28;100479;-69
2020/12/22 02:43:39;;;;;;;23.60;18.37;;;6.00;99.90;;;4.02;100.00;100082.19;4966263;28;100627;-68
2020/12/22 02:46:06;;;;;;;22.97;17.77;;;6.00;99.90;;;3.96;100.00;100085.31;4965176;28;101171;-69
2020/12/22 02:48:33;;;;;;;23.93;17.27;;;6.00;99.90;;;3.97;100.00;100077.25;4965478;28;100051;-68
2020/12/22 02:51:00;;;;;;;21.87;16.10;;;5.70;99.90;;;3.91;100.00;100085.69;4964645;28;100103;-65
2020/12/22 02:53:26;;;;;;;22.83;16.87;;;5.70;99.90;;;3.88;100.00;100080.63;4963807;28;101711;-65
2020/12/22 02:55:54;;;;;;;23.93;18.40;;;5.80;99.90;;;3.82;100.00;100077.66;4964870;28;99996;-64
2020/12/22 02:58:21;;;;;;;23.53;17.73;;;6.80;99.90;;;3.81;100.00;100068.03;4960550;28;100246;-65
2020/12/22 03:00:48;;;;;;;25.00;17.73;;;5.70;99.90;;;3.74;100.00;100072.94;4864965;28;100333;-66
2020/12/22 03:03:14;;;;;;;26.20;19.77;;;5.60;99.90;;;3.70;100.00;100060.94;4864737;28;101639;-65
2020/12/22 03:05:41;;;;;;;23.90;18.03;;;5.50;99.90;;;3.67;100.00;100052.38;4865010;28;100269;-65
2020/12/22 03:08:09;;;;;;;23.07;16.33;;;6.80;99.90;;;3.65;100.00;100057.78;4870842;28;100620;-67
2020/12/22 03:10:36;;;;;;;24.63;18.93;;;5.50;99.90;;;3.65;100.00;100041.06;4902438;28;100279;-68
2020/12/22 03:13:03;;;;;;;21.27;16.27;;;5.40;99.90;;;3.64;100.00;100034.09;4883406;28;101270;-66
2020/12/22 03:15:30;;;;;;;24.53;18.77;;;5.40;99.90;;;3.59;100.00;100030.00;4929436;28;100511;-68
2020/12/22 03:17:56;;;;;;;25.50;18.70;;;5.50;99.90;;;3.60;100.00;100023.75;4883652;28;100031;-68
2020/12/22 03:20:24;;;;;;;24.93;17.13;;;5.60;99.90;;;3.62;100.00;100013.03;4884027;28;100114;-63
2020/12/22 03:22:51;;;;;;;28.80;20.90;;;5.40;99.90;;;3.63;100.00;100008.59;4883399;28;101657;-66
2020/12/22 03:25:18;;;;;;;25.27;19.10;;;4.60;99.90;;;3.60;100.00;100007.03;4883815;28;100124;-66
2020/12/22 03:27:45;;;;;;;26.47;18.40;;;5.50;99.90;;;3.63;100.00;100012.06;4883820;28;99987;-65
2020/12/22 03:30:15;;;;;;;26.77;19.97;;;5.30;99.90;;;3.65;100.00;100007.50;4883984;28;100024;-67
2020/12/22 03:32:42;;;;;;;26.63;19.57;;;5.50;99.90;;;3.68;100.00;100001.16;4883318;28;100971;-65
2020/12/22 03:35:10;;;;;;;26.50;17.50;;;5.50;99.90;;;3.68;100.00;99993.22;4883450;28;100834;-66
2020/12/22 03:37:38;;;;;;;23.67;18.50;;;5.40;99.90;;;3.69;100.00;99992.25;4927232;28;100020;-65
2020/12/22 03:40:12;;;;;;;25.67;19.00;;;5.50;99.90;;;3.71;100.00;99991.13;4915453;28;100019;-66
2020/12/22 03:42:38;;;;;;;24.40;18.20;;;5.30;99.90;;;3.73;100.00;99989.22;4963814;28;101020;-64
2020/12/22 03:45:06;;;;;;;24.10;18.10;;;5.40;99.90;;;3.77;100.00;99982.72;4934560;28;101405;-66
2020/12/22 03:47:34;;;;;;;23.83;17.40;;;5.90;99.90;;;3.79;100.00;99985.25;4864401;28;100211;-67
2020/12/22 03:50:01;;;;;;;26.77;18.53;;;5.50;99.90;;;3.82;100.00;99979.72;4877473;28;100209;-67
2020/12/22 03:52:27;;;;;;;21.90;16.80;;;5.50;99.90;;;3.82;100.00;99977.06;4883619;28;100759;-67
2020/12/22 03:54:54;;;;;;;22.60;17.27;;;5.60;99.90;;;3.80;100.00;99971.06;4883305;28;100963;-69
2020/12/22 03:57:20;;;;;;;25.33;18.73;;;5.50;99.90;;;3.81;100.00;99975.38;4883714;28;100198;-67
2020/12/22 03:59:47;;;;;;;24.13;17.73;;;5.50;99.90;;;3.79;100.00;99975.50;4934996;28;100159;-69
2020/12/22 04:02:13;;;;;;;24.37;17.87;;;5.30;99.90;;;3.83;100.00;99976.13;4964180;28;101540;-66
2020/12/22 04:04:41;;;;;;;23.83;15.80;;;5.50;99.90;;;3.87;100.00;99966.94;4930756;28;100678;-65
2020/12/22 04:07:07;;;;;;;25.67;18.17;;;5.60;99.90;;;3.86;100.00;99973.19;4891247;28;100202;-65
2020/12/22 04:09:34;;;;;;;23.83;16.30;;;5.50;99.90;;;3.82;100.00;99967.34;4882670;28;100138;-66
2020/12/22 04:12:00;;;;;;;24.17;16.93;;;5.60;99.90;;;3.87;100.00;99965.13;4890552;28;100424;-63
2020/12/22 04:14:27;;;;;;;23.07;16.27;;;5.40;99.90;;;3.88;100.00;99968.63;4883872;28;100880;-64
2020/12/22 04:16:53;;;;;;;22.70;17.13;;;5.60;99.90;;;3.85;100.00;99955.63;4902956;28;100378;-64
2020/12/22 04:19:20;;;;;;;19.53;15.07;;;6.30;99.90;;;3.87;100.00;99956.34;4964204;28;100071;-65
2020/12/22 04:21:48;;;;;;;21.90;16.73;;;5.60;99.90;;;3.90;100.00;99941.06;4963974;28;101504;-63
2020/12/22 04:24:15;;;;;;;31.90;15.23;;;5.60;99.90;;;3.95;100.00;99944.22;4895237;28;100180;-66
2020/12/22 04:26:41;;;;;;;20.23;15.03;;;5.50;99.90;;;3.95;100.00;99932.78;4883450;28;100179;-66
2020/12/22 04:29:08;;;;;;;20.37;15.67;;;5.50;99.90;;;4.00;100.00;99948.25;4882976;28;100273;-63
2020/12/22 04:31:34;;;;;;;19.63;15.77;;;5.70;99.90;;;4.00;100.00;99938.53;4953115;28;101249;-64
2020/12/22 04:34:00;;;;;;;20.47;14.70;;;5.60;99.90;;;4.07;100.00;99933.59;4964223;28;100928;-66
2020/12/22 04:36:27;;;;;;;19.73;14.23;;;6.20;99.90;;;4.06;100.00;99935.38;4963721;28;100171;-65
2020/12/22 04:38:55;;;;;;;16.03;12.47;;;5.70;99.90;;;4.09;100.00;99929.81;4963939;28;99900;-66
2020/12/22 04:41:23;;;;;;;14.97;10.47;;;5.80;99.90;;;4.11;100.00;99925.25;4964803;28;101028;-63
2020/12/22 04:43:51;;;;;;;20.10;14.10;;;5.80;99.90;;;4.11;100.00;99932.34;4923667;28;100671;-65
2020/12/22 04:46:20;;;;;;;19.47;13.83;;;5.80;99.90;;;4.10;100.00;99922.72;4927476;28;99977;-65
2020/12/22 04:48:52;;;;;;;13.40;10.90;;;5.80;99.90;;;4.11;100.00;99945.59;4883381;28;100136;-64
2020/12/22 04:51:20;;;;;;;17.03;10.90;;;5.80;99.90;;;4.11;100.00;99937.63;4908107;28;100938;-67
2020/12/22 04:53:47;;;;;;;14.90;12.13;;;5.80;99.90;;;4.12;100.00;99948.09;4959430;28;100409;-63
2020/12/22 04:56:14;;;;;;;14.17;11.07;;;5.90;99.90;;;4.12;100.00;99942.81;4961817;28;100205;-64
2020/12/22 04:58:41;;;;;;;13.60;9.43;;;5.90;99.90;;;4.18;100.00;99944.13;4963418;28;100125;-64
2020/12/22 05:01:08;;;;;;;14.67;11.23;;;5.90;99.90;;;4.14;100.00;99932.09;4913465;28;101009;-66
2020/12/22 05:03:35;;;;;;;14.17;10.17;;;5.80;99.90;;;4.14;100.00;99929.44;4882844;28;100323;-66
2020/12/22 05:06:01;;;;;;;12.70;9.93;;;5.90;99.90;;;4.16;100.00;99928.38;4872278;28;100243;-65
2020/12/22 05:08:28;;;;;;;14.00;10.57;;;5.90;99.90;;;4.15;100.00;99923.19;4903020;28;100183;-64
2020/12/22 05:10:54;;;;;;;13.93;10.33;;;5.90;99.90;;;4.16;100.00;99912.47;4963247;28;100924;-65
2020/12/22 05:13:22;;;;;;;14.03;10.33;;;5.90;99.90;;;4.21;100.00;99898.84;4910734;28;100188;-63
2020/12/22 05:15:51;;;;;;;11.60;9.40;;;6.00;99.90;;;4.19;100.00;99895.50;4962020;28;100353;-69
2020/12/22 05:18:22;;;;;;;12.80;9.67;;;6.10;99.90;;;4.19;100.00;99893.69;4965290;28;100130;-66
2020/12/22 05:20:49;;;;;;;11.80;9.70;;;5.90;99.90;;;4.21;100.00;99890.91;4912304;28;101089;-72
2020/12/22 05:23:17;;;;;;;15.47;10.77;;;5.80;99.90;;;4.22;100.00;99888.13;4885268;28;101312;-68
2020/12/22 05:25:45;;;;;;;13.30;10.43;;;5.90;99.90;;;4.23;100.00;99889.81;4916953;28;100087;-66
2020/12/22 05:28:15;;;;;;;14.10;10.23;;;5.90;99.90;;;4.27;100.00;99879.81;4967247;28;99910;-66
2020/12/22 05:30:43;;;;;;;12.77;9.60;;;6.00;99.90;;;4.31;100.00;99883.88;4966559;28;100092;-67
2020/12/22 05:33:10;;;;;;;11.77;9.17;;;5.90;99.90;;;4.28;100.00;99890.28;4936793;28;100747;-66
2020/12/22 05:35:39;;;;;;;13.57;11.57;;;5.90;99.90;;;4.38;100.00;99869.16;4885326;28;100053;-66
2020/12/22 05:38:06;;;;;;;16.97;13.77;;;6.00;99.90;;;4.41;100.00;99866.25;4885718;28;99973;-64
2020/12/22 05:40:34;;;;;;;13.60;9.60;;;6.00;99.90;;;4.48;100.00;99870.06;4890108;28;100745;-65
2020/12/22 05:43:01;;;;;;;14.07;11.90;;;6.00;99.90;;;4.45;100.00;99859.69;4885675;28;100407;-64
2020/12/22 05:45:31;;;;;;;13.20;10.67;;;6.10;99.90;;;4.50;100.00;99856.69;4950390;28;100858;-64
2020/12/22 05:47:59;;;;;;;13.53;9.33;;;6.10;99.90;;;4.53;100.00;99845.81;4934351;28;100081;-65
2020/12/22 05:50:25;;;;;;;14.00;10.87;;;6.20;99.90;;;4.57;100.00;99852.56;4884973;28;100900;-64
2020/12/22 05:52:54;;;;;;;11.87;8.30;;;6.20;99.90;;;4.61;100.00;99852.13;4884984;28;100939;-64
2020/12/22 05:55:28;;;;;;;12.23;9.10;;;7.00;99.90;;;4.65;100.00;99837.66;4885594;28;100018;-64
2020/12/22 05:58:12;;;;;;;40.87;11.47;;;6.40;99.90;;;4.67;100.00;99853.44;4885058;28;100083;-64
2020/12/22 06:00:40;;;;;;;11.97;10.30;;;6.40;99.90;;;4.70;100.00;99831.97;4943969;28;101991;-68
2020/12/22 06:03:09;;;;;;;8.83;7.50;;;6.40;99.90;;;4.73;100.00;99842.31;4942284;28;103329;-63
2020/12/22 06:05:38;;;;;;;9.13;8.17;;;6.30;99.90;;;4.78;100.00;99829.50;4929557;28;100220;-63
2020/12/22 06:08:07;;;;;;;9.73;8.73;;;6.40;99.90;;;4.79;100.00;99838.28;4884759;28;100288;-64
2020/12/22 06:10:36;;;;;;;7.90;7.10;;;6.40;99.90;;;4.84;100.00;99833.41;4884474;28;100971;-63
2020/12/22 06:13:04;;;;;;;8.43;7.60;;;6.50;99.90;;;4.84;100.00;99825.47;4885309;28;100208;-64
2020/12/22 06:15:32;;;;;;;10.33;7.50;;;6.50;99.90;;;4.85;100.00;99822.69;4884779;28;99991;-63
2020/12/22 06:18:00;;;;;;;7.70;6.50;;;6.50;99.90;;;4.85;100.00;99822.69;4916330;28;100149;-65
2020/12/22 06:20:29;;;;;;;7.00;6.13;;;6.50;99.90;;;4.86;100.00;99811.13;4946628;28;100706;-64
2020/12/22 06:23:01;;;;;;;7.00;6.10;;;6.60;99.90;;;4.85;100.00;99808.59;4884468;28;100708;-63
2020/12/22 06:25:28;;;;;;;6.83;5.80;;;6.60;99.90;;;4.91;100.00;99803.63;4885445;28;100525;-64
2020/12/22 06:27:55;;;;;;;8.07;5.60;;;6.60;99.90;;;4.92;100.00;99815.06;4885976;28;100129;-63
2020/12/22 06:30:32;;;;;;;6.37;5.73;;;6.70;99.90;;;4.92;100.00;99805.28;4885580;28;100502;-64
2020/12/22 06:33:18;;;;;;;7.50;5.40;;;6.70;99.90;;;4.98;100.00;99811.84;4894875;28;100514;-66
2020/12/22 06:36:08;;;;;;;5.83;4.73;;;6.60;99.90;;;5.01;100.00;99820.38;4964529;28;100035;-64
2020/12/22 06:38:53;;;;;;;5.10;4.60;;;6.60;99.90;;;5.05;100.00;99813.00;4965282;28;100130;-62
2020/12/22 06:41:45;;;;;;;5.97;5.33;;;6.70;99.90;;;5.02;100.00;99821.22;4965591;28;100648;-68
2020/12/22 06:44:16;;;;;;;6.27;5.50;;;6.70;99.90;;;5.01;100.00;99823.03;4865023;28;102006;-65
2020/12/22 06:46:44;;;;;;;8.63;5.70;;;6.70;99.90;;;5.03;100.00;99823.75;4865280;28;100257;-64
2020/12/22 06:49:11;;;;;;;6.07;5.23;;;6.70;99.90;;;5.06;100.00;99822.66;4864942;28;99949;-64
2020/12/22 06:51:40;;;;;;;7.50;5.83;;;7.70;99.90;;;5.05;100.00;99811.22;4865221;28;100750;-64
2020/12/22 06:54:32;;;;;;;7.17;5.03;;;6.70;99.90;;;5.05;100.00;99811.22;4865519;28;100650;-64
2020/12/22 06:56:58;;;;;;;6.23;4.63;;;6.70;99.90;;;5.11;100.00;99808.97;4883247;28;100106;-66
2020/12/22 06:59:49;;;;;;;5.67;5.07;;;6.70;99.90;;;5.12;100.00;99808.84;4883939;28;100079;-66
2020/12/22 07:02:33;;;;;;;5.77;3.90;;;6.80;99.90;;;5.10;100.00;99816.09;4875753;28;101227;-65
2020/12/22 07:05:01;;;;;;;5.20;4.70;;;6.80;99.90;;;5.12;100.00;99819.44;4938990;28;100267;-63
2020/12/22 07:07:55;;;;;;;6.70;5.10;;;6.80;99.90;;;5.14;100.00;99816.66;4965705;28;99882;-65
2020/12/22 07:10:23;;;;;;;6.67;5.57;;;6.80;99.90;;;5.15;100.00;99821.84;4946777;28;100320;-64
2020/12/22 07:12:50;;;;;;;8.53;5.27;;;8.20;99.90;;;5.16;100.00;99815.56;4946044;28;101683;-64
2020/12/22 07:15:19;;;;;;;5.73;5.17;;;6.80;99.90;;;5.17;100.00;99809.28;4964861;28;102520;-66
2020/12/22 07:17:45;;;;;;;7.43;5.47;;;6.90;99.90;;;5.19;100.00;99812.66;4963938;28;100004;-61
2020/12/22 07:20:12;;;;;;;20.30;6.83;;;6.90;99.90;;;5.24;100.00;99814.88;4964923;28;99967;-64
2020/12/22 07:22:39;;;;;;;6.37;5.37;;;7.00;99.90;;;5.31;100.00;99805.41;4942053;28;100906;-65
2020/12/22 07:25:06;;;;;;;8.93;5.20;;;7.60;99.90;;;5.31;100.00;99808.06;4962026;28;100549;-65
2020/12/22 07:27:33;;;;;;;5.87;4.67;;;7.00;99.90;;;5.34;100.00;99798.00;4956803;28;100272;-67
2020/12/22 07:30:00;;;;;;;6.57;4.77;;;7.00;99.90;;;5.38;100.00;99817.97;4863645;28;100110;-68
2020/12/22 07:32:27;;;;;;;5.77;4.37;;;7.10;99.90;;;5.41;100.00;99815.06;4924584;28;100134;-64
2020/12/22 07:34:53;;;;;;;5.63;4.87;;;7.00;99.90;;;5.43;100.00;99809.63;4962323;28;100735;-64
2020/12/22 07:37:19;;;;;;;5.57;4.97;;;7.20;99.90;;;5.50;100.00;99810.75;4963554;28;99947;-64
2020/12/22 07:39:47;;;;;;;5.30;4.53;;;7.70;99.90;;;5.54;100.00;99806.00;4944092;28;100120;-65
2020/12/22 07:42:16;;;;;;;10.57;5.23;;;7.10;99.90;;;5.52;100.00;99814.09;4962567;28;101073;-64
2020/12/22 07:44:44;;;;;;;211.40;139.47;;;7.30;99.90;;;5.57;100.00;99792.44;4962582;28;100646;-63
2020/12/22 07:47:14;;;;;;;7.43;6.60;;;7.30;99.90;;;5.57;100.00;99795.94;4961766;28;100037;-63
2020/12/22 07:49:42;;;;;;;8.67;7.03;;;7.20;99.90;;;5.63;100.00;99799.88;4955378;28;100382;-64
2020/12/22 07:52:14;;;;;;;7.27;5.83;;;7.40;99.90;;;5.61;100.00;99796.50;4916101;28;100623;-67
2020/12/22 07:54:40;;;;;;;6.73;4.70;;;7.40;99.90;;;5.63;100.00;99791.91;4931945;28;101373;-65
2020/12/22 07:57:12;;;;;;;6.10;4.80;;;8.60;99.90;;;5.67;100.00;99799.47;4923143;28;100298;-63
2020/12/22 07:59:38;;;;;;;4.40;4.00;;;7.40;99.90;;;5.71;100.00;99800.84;4884485;28;100135;-66
2020/12/22 08:02:05;;;;;;;25.90;15.27;;;8.40;99.90;;;5.71;100.00;99794.69;4950255;28;101185;-63
2020/12/22 08:04:31;;;;;;;44.63;8.53;;;7.40;99.90;;;5.78;100.00;99803.78;4955213;28;101435;-66
2020/12/22 08:07:00;;;;;;;5.20;4.17;;;7.40;99.90;;;5.81;100.00;99800.03;4962971;28;100025;-64
2020/12/22 08:09:30;;;;;;;5.33;4.83;;;7.70;99.90;;;5.78;100.00;99801.13;4920355;28;100215;-64
2020/12/22 08:11:59;;;;;;;4.47;4.00;;;7.50;99.90;;;5.82;100.00;99807.81;4929352;28;100126;-64
2020/12/22 08:14:28;;;;;;;5.77;4.33;;;7.70;99.90;;;5.88;100.00;99807.31;4962062;28;99932;-64
2020/12/22 08:16:58;;;;;;;4.60;3.83;;;7.60;99.90;;;6.01;100.00;99807.03;4880286;28;100274;-64
2020/12/22 08:19:27;;;;;;;3.80;3.40;;;7.90;99.90;;;6.09;100.00;99808.00;4884902;28;100217;-64
2020/12/22 08:21:56;;;;;;;4.40;3.40;;;7.60;99.90;;;6.07;100.00;99809.09;4880996;28;101426;-65
2020/12/22 08:24:23;;;;;;;14.87;4.40;;;7.80;99.90;;;6.21;100.00;99803.38;4880947;28;100488;-65
2020/12/22 08:26:51;;;;;;;3.93;3.03;;;7.10;99.90;;;6.35;100.00;99804.75;4881229;28;100066;-65
2020/12/22 08:29:19;;;;;;;4.40;3.03;;;7.60;99.90;;;6.41;100.00;99809.50;4955861;28;100036;-65
2020/12/22 08:31:47;;;;;;;4.63;3.07;;;7.90;99.90;;;6.49;100.00;99805.13;4932502;28;100482;-65
2020/12/22 08:34:17;;;;;;;3.17;2.60;;;8.00;99.90;;;6.70;100.00;99812.06;4945776;28;101501;-64
2020/12/22 08:36:45;;;;;;;5.27;2.60;;;8.00;99.90;;;6.81;100.00;99802.09;4964619;28;100294;-65
2020/12/22 08:39:16;;;;;;;2.97;2.40;;;8.10;99.90;;;6.87;100.00;99798.00;4964522;28;100403;-64
2020/12/22 08:41:45;;;;;;;2.67;2.17;;;8.20;99.90;;;7.01;100.00;99804.69;4961381;28;101618;-64
2020/12/22 08:44:12;;;;;;;5.20;2.33;;;8.30;99.90;;;7.15;100.00;99804.19;4920632;28;100127;-63
2020/12/22 08:46:39;;;;;;;4.10;2.23;;;8.40;99.90;;;7.19;100.00;99803.72;4880779;28;100286;-64
2020/12/22 08:49:08;;;;;;;2.53;2.23;;;8.50;99.90;;;7.26;100.00;99811.13;4880721;28;99943;-64
2020/12/22 08:51:35;;;;;;;2.67;2.27;;;8.50;99.90;;;7.33;100.00;99807.72;4880805;28;101562;-64
2020/12/22 08:54:02;;;;;;;2.97;2.23;;;8.50;99.90;;;7.40;100.00;99810.63;4883208;28;101022;-64
2020/12/22 08:56:34;;;;;;;3.73;1.87;;;8.60;99.90;;;7.43;100.00;99812.97;4884670;28;99904;-64
2020/12/22 08:59:03;;;;;;;2.63;2.23;;;8.80;99.90;;;7.47;100.00;99806.38;4883728;28;100296;-66
2020/12/22 09:01:39;;;;;;;3.73;2.40;;;8.60;99.90;;;7.51;100.00;99800.63;4883156;28;100582;-65
2020/12/22 09:04:05;;;;;;;6.53;2.40;;;8.90;99.90;;;7.67;100.00;99799.06;4882955;28;101005;-65
2020/12/22 09:06:42;;;;;;;3.60;1.90;;;9.20;99.90;;;7.72;100.00;99800.31;4883526;28;100199;-66
2020/12/22 09:09:16;;;;;;;2.83;1.60;;;9.10;99.90;;;8.00;100.00;99805.56;4883897;28;100058;-65
2020/12/22 09:11:44;;;;;;;1.73;1.37;;;9.20;99.90;;;8.17;100.00;99802.03;4877352;28;102999;-65
2020/12/22 09:14:13;;;;;;;2.03;1.57;;;10.60;99.90;;;8.25;100.00;99800.28;4958810;28;100522;-68
2020/12/22 09:16:54;;;;;;;1.60;1.10;;;9.90;99.90;;;8.41;100.00;99791.56;4965038;28;100649;-65
2020/12/22 09:19:30;;;;;;;1.60;1.23;;;9.90;99.90;;;8.57;100.00;99794.38;4964505;28;100320;-66
2020/12/22 09:22:02;;;;;;;0.90;0.70;;;10.20;99.90;;;8.69;100.00;99791.41;4964499;28;101517;-66
2020/12/22 09:24:31;;;;;;;1.80;1.30;;;11.00;99.90;;;8.91;100.00;99801.53;4964924;28;100429;-68
2020/12/22 09:27:04;;;;;;;4.10;2.00;;;11.20;99.90;;;9.15;100.00;99803.50;4964222;28;100061;-65
2020/12/22 09:29:31;;;;;;;2.20;1.47;;;10.70;99.90;;;9.26;100.00;99800.56;4892184;28;100233;-66
2020/12/22 09:32:00;;;;;;;2.60;1.73;;;10.30;99.90;;;9.45;100.00;99791.41;4864752;28;100307;-66
2020/12/22 09:34:29;;;;;;;1.40;1.30;;;10.30;99.90;;;9.42;100.00;99795.25;4882718;28;101831;-67
2020/12/22 09:36:59;;;;;;;0.37;0.33;;;11.50;99.90;;;9.73;100.00;99791.00;4893934;28;100325;-68
2020/12/22 09:39:28;;;;;;;0.67;0.50;;;10.60;99.90;;;9.72;100.00;99786.63;4882697;28;100088;-66
2020/12/22 09:41:56;;;;;;;0.83;0.50;;;10.80;99.90;;;9.79;100.00;99794.81;4939141;28;102163;-66
2020/12/22 09:44:23;;;;;;;0.47;0.43;;;10.90;99.90;;;9.82;100.00;99791.00;4945297;28;101479;-67
2020/12/22 09:46:51;;;;;;;0.57;0.40;;;12.10;99.90;;;9.98;100.00;99778.47;4946588;28;100155;-63
2020/12/22 09:49:18;;;;;;;0.37;0.27;;;10.90;99.90;;;10.15;100.00;99786.47;4883533;28;100047;-69
2020/12/22 09:51:45;;;;;;;2.30;0.50;;;12.10;99.90;;;10.17;100.00;99779.97;4889489;28;100635;-64
2020/12/22 09:54:12;;;;;;;0.83;0.50;;;11.10;99.90;;;10.25;100.00;99789.88;4882826;28;100325;-68
2020/12/22 09:56:39;;;;;;;0.30;0.30;;;11.40;99.90;;;10.34;100.00;99772.81;4882513;28;100099;-66
2020/12/22 09:59:06;;;;;;;2.30;0.60;;;11.40;99.90;;;10.39;100.00;99792.69;4882595;28;99932;-65
2020/12/22 10:01:33;;;;;;;0.70;0.40;;;11.50;99.90;;;10.61;100.00;99791.16;4882650;28;100330;-63
2020/12/22 10:03:59;;;;;;;0.90;0.50;;;11.70;99.90;;;10.79;100.00;99788.25;4882386;28;101173;-65
2020/12/22 10:06:27;;;;;;;0.90;0.50;;;12.00;99.90;;;10.88;100.00;99778.38;4886882;28;100285;-62
2020/12/22 10:08:55;;;;;;;0.20;0.20;;;11.00;99.90;;;10.86;100.00;99785.75;4963236;28;100108;-64
2020/12/22 10:11:22;;;;;;;0.30;0.30;;;12.30;99.90;;;10.83;100.00;99784.25;4963634;28;100900;-62
2020/12/22 10:13:50;;;;;;;0.50;0.27;;;12.20;99.90;;;10.77;100.00;99796.47;4963769;28;100344;-62